Time;durP1;ratioP1;P1;durP2;ratioP2;P2;SDS_P1;SDS_P2;PMS_P1;PMS_P2;Temp;Humidity;BMP_temperature;BMP_pressure;BME280_temperature;BME280_humidity;BME280_pressure;Samples;Min_cycle;Max_cycle;Signal;HPM_P1;HPM_P2
2023/03/26 00:01:06;;;;;;;37.20;6.93;;;;;;;8.15;100.00;100538.03;4973189;28;20018;-69
2023/03/26 00:03:33;;;;;;;37.50;6.40;;;;;;;8.10;100.00;100532.47;4975307;28;20026;-69
2023/03/26 00:06:06;;;;;;;34.63;6.50;;;;;;;8.05;100.00;100537.69;4957735;28;20106;-69
2023/03/26 00:08:32;;;;;;;34.60;7.95;;;;;;;8.06;100.00;100540.19;4975185;28;20026;-69
2023/03/26 00:10:58;;;;;;;41.63;7.03;;;;;;;8.04;100.00;100531.47;4975722;28;20451;-68
2023/03/26 00:13:23;;;;;;;38.67;6.78;;;;;;;8.01;100.00;100533.78;4981546;28;20043;-68
2023/03/26 00:15:48;;;;;;;37.45;7.03;;;;;;;8.00;100.00;100527.53;4994581;28;20026;-70
2023/03/26 00:18:14;;;;;;;37.05;6.95;;;;;;;7.98;100.00;100529.63;4994795;28;20065;-71
2023/03/26 00:20:40;;;;;;;31.58;6.78;;;;;;;7.97;100.00;100522.56;4994770;28;20026;-71
2023/03/26 00:23:06;;;;;;;35.28;7.28;;;;;;;7.92;100.00;100523.22;4992125;28;20145;-68
2023/03/26 00:25:33;;;;;;;36.00;7.22;;;;;;;7.93;100.00;100519.50;4975030;28;20061;-67
2023/03/26 00:27:58;;;;;;;40.40;7.10;;;;;;;7.93;100.00;100524.88;4975140;28;20415;-70
2023/03/26 00:30:23;;;;;;;38.70;6.93;;;;;;;7.94;100.00;100520.31;4974969;28;20027;-71
2023/03/26 00:32:49;;;;;;;34.83;6.47;;;;;;;7.91;100.00;100513.50;4976215;28;20058;-72
2023/03/26 00:35:14;;;;;;;31.60;6.68;;;;;;;7.86;100.00;100512.50;4976912;28;20477;-69
2023/03/26 00:37:41;;;;;;;37.53;7.15;;;;;;;7.85;100.00;100500.91;4994423;28;20064;-72
2023/03/26 00:40:09;;;;;;;35.40;7.15;;;;;;;7.84;100.00;100518.09;4974495;28;20362;-72
2023/03/26 00:42:37;;;;;;;32.67;6.78;;;;;;;7.81;100.00;100505.88;4994383;28;20123;-69
2023/03/26 00:45:06;;;;;;;29.95;6.10;;;;;;;7.81;100.00;100511.28;4993354;28;20022;-68
2023/03/26 00:47:32;;;;;;;32.75;7.07;;;;;;;7.76;100.00;100505.72;4976859;28;20026;-72
2023/03/26 00:49:57;;;;;;;32.45;6.78;;;;;;;7.76;100.00;100507.56;4994180;28;20034;-71
2023/03/26 00:52:23;;;;;;;38.08;7.43;;;;;;;7.76;100.00;100507.56;4993986;28;20025;-68
2023/03/26 00:54:51;;;;;;;34.45;6.95;;;;;;;7.79;100.00;100499.06;4958361;28;20069;-68
2023/03/26 00:57:20;;;;;;;42.22;7.28;;;;;;;7.77;100.00;100499.25;4974337;28;20086;-70
2023/03/26 00:59:46;;;;;;;36.85;6.95;;;;;;;7.78;100.00;100494.72;4974419;28;20106;-69
2023/03/26 01:02:15;;;;;;;34.80;7.78;;;;;;;7.76;100.00;100488.69;4971818;28;20114;-70
2023/03/26 01:04:44;;;;;;;33.30;6.30;;;;;;;7.77;100.00;100487.66;4977758;28;20114;-71
2023/03/26 01:07:13;;;;;;;38.05;6.93;;;;;;;7.73;100.00;100478.38;4974019;28;20034;-68
2023/03/26 01:09:44;;;;;;;36.22;7.03;;;;;;;7.70;100.00;100474.25;4974395;28;20026;-71
2023/03/26 01:12:17;;;;;;;33.55;6.70;;;;;;;7.69;100.00;100469.09;4973857;28;20038;-71
2023/03/26 01:14:43;;;;;;;29.27;6.70;;;;;;;7.69;100.00;100469.09;4987156;28;20450;-70
2023/03/26 01:17:08;;;;;;;41.58;6.85;;;;;;;7.65;100.00;100457.91;4975967;28;20433;-71
2023/03/26 01:19:43;;;;;;;34.63;6.22;;;;;;;7.65;100.00;100462.47;4976018;28;20030;-68
2023/03/26 01:22:18;;;;;;;31.17;6.10;;;;;;;7.57;100.00;100461.66;4976015;28;20445;-71
2023/03/26 01:24:51;;;;;;;33.65;6.78;;;;;;;7.60;100.00;100450.47;4979487;28;20034;-70
2023/03/26 01:27:39;;;;;;;35.42;6.45;;;;;;;7.61;100.00;100444.03;4984969;28;20035;-72
2023/03/26 01:30:32;;;;;;;26.63;5.65;;;;;;;7.56;100.00;100437.66;4973413;28;20023;-71
2023/03/26 01:33:12;;;;;;;30.33;6.78;;;;;;;7.55;100.00;100436.84;4973748;28;20525;-71
2023/03/26 01:36:04;;;;;;;31.75;6.43;;;;;;;7.56;100.00;100434.94;4978353;28;20108;-69
2023/03/26 01:38:48;;;;;;;32.40;6.13;;;;;;;7.57;100.00;100429.34;4974095;28;20113;-68
2023/03/26 01:41:31;;;;;;;30.55;6.00;;;;;;;7.51;100.00;100427.53;4973789;28;20023;-70
2023/03/26 01:44:02;;;;;;;30.88;6.18;;;;;;;7.50;100.00;100428.56;4978307;28;20466;-71
2023/03/26 01:46:29;;;;;;;34.40;6.75;;;;;;;7.43;100.00;100428.59;4973135;28;20031;-69
2023/03/26 01:48:54;;;;;;;32.17;6.85;;;;;;;7.48;100.00;100419.88;4956623;28;20450;-69
2023/03/26 01:51:29;;;;;;;30.25;6.38;;;;;;;7.43;100.00;100417.84;4973791;28;20030;-70
2023/03/26 01:53:57;;;;;;;34.97;6.65;;;;;;;7.46;100.00;100419.28;4973542;28;20497;-72
2023/03/26 01:56:34;;;;;;;37.17;7.25;;;;;;;7.43;100.00;100422.41;4973459;28;20027;-69
2023/03/26 01:59:27;;;;;;;43.20;6.43;;;;;;;7.48;100.00;100408.28;4955887;28;20470;-70
2023/03/26 02:02:03;;;;;;;30.00;6.15;;;;;;;7.42;100.00;100412.66;4971389;28;20497;-72
2023/03/26 02:04:41;;;;;;;34.38;6.55;;;;;;;7.42;100.00;100402.72;4973303;28;20027;-68
2023/03/26 02:07:19;;;;;;;32.70;6.32;;;;;;;7.41;100.00;100392.16;4973458;28;20102;-68
2023/03/26 02:09:54;;;;;;;31.40;5.93;;;;;;;7.37;100.00;100393.66;4973707;28;20023;-69
2023/03/26 02:12:21;;;;;;;33.40;6.35;;;;;;;7.40;100.00;100390.53;4973200;28;20038;-71
2023/03/26 02:14:47;;;;;;;34.55;6.40;;;;;;;7.41;100.00;100386.78;4973132;28;20029;-68
2023/03/26 02:17:12;;;;;;;30.17;6.22;;;;;;;7.40;100.00;100385.16;4973034;28;20399;-68
2023/03/26 02:19:41;;;;;;;29.52;5.55;;;;;;;7.40;100.00;100371.69;4973246;28;20037;-68
2023/03/26 02:22:10;;;;;;;24.30;5.25;;;;;;;7.42;100.00;100372.28;4973398;28;20031;-71
2023/03/26 02:24:37;;;;;;;28.95;6.05;;;;;;;7.40;100.00;100379.75;4973386;28;20122;-68
2023/03/26 02:27:03;;;;;;;35.03;6.03;;;;;;;7.41;100.00;100365.25;4956164;28;20034;-69
2023/03/26 02:29:28;;;;;;;28.40;6.10;;;;;;;7.39;100.00;100367.34;4972671;28;20065;-68
2023/03/26 02:31:54;;;;;;;29.63;6.13;;;;;;;7.39;100.00;100364.63;4973767;28;20046;-70
2023/03/26 02:34:19;;;;;;;32.72;5.93;;;;;;;7.42;100.00;100367.72;4972202;28;20049;-69
2023/03/26 02:36:45;;;;;;;29.42;5.97;;;;;;;7.43;100.00;100365.88;4973349;28;20027;-68
2023/03/26 02:39:13;;;;;;;29.48;6.40;;;;;;;7.42;100.00;100356.94;4973311;28;20030;-68
2023/03/26 02:41:38;;;;;;;30.27;5.65;;;;;;;7.44;100.00;100360.25;4975779;28;20034;-68
2023/03/26 02:44:04;;;;;;;26.50;5.53;;;;;;;7.43;100.00;100352.41;4975871;28;20026;-69
2023/03/26 02:46:33;;;;;;;26.73;5.30;;;;;;;7.40;100.00;100348.28;4976671;28;20477;-69
2023/03/26 02:48:58;;;;;;;28.73;5.47;;;;;;;7.43;100.00;100341.63;4959744;28;20038;-69
2023/03/26 02:51:24;;;;;;;28.30;5.75;;;;;;;7.46;100.00;100341.22;4976542;28;20382;-69
2023/03/26 02:53:52;;;;;;;29.58;5.40;;;;;;;7.45;100.00;100326.09;4984378;28;20030;-70
2023/03/26 02:56:17;;;;;;;29.52;5.72;;;;;;;7.44;100.00;100324.44;4995983;28;20036;-69
2023/03/26 02:58:43;;;;;;;31.92;6.65;;;;;;;7.47;100.00;100321.28;4986922;28;20022;-68
2023/03/26 03:01:08;;;;;;;24.63;4.90;;;;;;;7.47;100.00;100310.53;4974302;28;20081;-69
2023/03/26 03:03:35;;;;;;;28.08;5.00;;;;;;;7.41;100.00;100316.78;4981722;28;20130;-72
2023/03/26 03:06:00;;;;;;;24.65;6.13;;;;;;;7.45;100.00;100312.63;4978389;28;20030;-68
2023/03/26 03:08:27;;;;;;;29.27;5.60;;;;;;;7.44;100.00;100306.44;4995893;28;20029;-67
2023/03/26 03:11:01;;;;;;;34.65;5.90;;;;;;;7.49;100.00;100296.84;4978667;28;20450;-70
2023/03/26 03:13:26;;;;;;;30.98;6.20;;;;;;;7.51;100.00;100295.59;4972342;28;20054;-72
2023/03/26 03:15:52;;;;;;;27.75;5.45;;;;;;;7.51;100.00;100292.09;4978539;28;20054;-71
2023/03/26 03:18:17;;;;;;;26.20;5.63;;;;;;;7.49;100.00;100289.63;4995655;28;20030;-71
2023/03/26 03:20:43;;;;;;;29.25;6.05;;;;;;;7.53;100.00;100292.69;4995661;28;20030;-70
2023/03/26 03:23:09;;;;;;;26.50;5.28;;;;;;;7.55;100.00;100288.75;4992809;28;20030;-70
2023/03/26 03:25:37;;;;;;;30.73;5.88;;;;;;;7.53;100.00;100284.59;4976155;28;20038;-70
2023/03/26 03:28:03;;;;;;;29.92;6.05;;;;;;;7.50;100.00;100272.41;4975950;28;20132;-70
2023/03/26 03:30:28;;;;;;;25.02;5.10;;;;;;;7.53;100.00;100276.53;4976211;28;20113;-68
2023/03/26 03:32:53;;;;;;;23.50;5.57;;;;;;;7.57;100.00;100278.56;4958398;28;20437;-71
2023/03/26 03:35:18;;;;;;;28.08;5.47;;;;;;;7.56;100.00;100274.25;4995053;28;20396;-69
2023/03/26 03:37:44;;;;;;;27.35;5.18;;;;;;;7.53;100.00;100271.97;4995598;28;20030;-68
2023/03/26 03:40:09;;;;;;;26.80;5.18;;;;;;;7.53;100.00;100266.56;4995341;28;20454;-71
2023/03/26 03:42:36;;;;;;;20.80;4.55;;;;;;;7.52;100.00;100261.41;4993971;28;20539;-69
2023/03/26 03:45:02;;;;;;;25.60;5.00;;;;;;;7.52;100.00;100258.72;4990933;28;20101;-70
2023/03/26 03:47:28;;;;;;;23.88;5.28;;;;;;;7.50;100.00;100266.19;4975819;28;20038;-71
2023/03/26 03:49:53;;;;;;;22.13;4.60;;;;;;;7.52;100.00;100258.72;4976025;28;20035;-71
2023/03/26 03:52:18;;;;;;;26.38;4.72;;;;;;;7.52;100.00;100256.03;4957790;28;20022;-69
2023/03/26 03:54:44;;;;;;;25.00;4.60;;;;;;;7.51;100.00;100257.91;4978578;28;20455;-69
2023/03/26 03:57:09;;;;;;;23.83;4.63;;;;;;;7.54;100.00;100260.16;4975358;28;20031;-71
2023/03/26 03:59:35;;;;;;;24.73;4.97;;;;;;;7.52;100.00;100247.94;4988961;28;20034;-70
2023/03/26 04:02:00;;;;;;;18.85;4.40;;;;;;;7.55;100.00;100242.97;4992933;28;20030;-69
2023/03/26 04:04:25;;;;;;;22.95;4.47;;;;;;;7.54;100.00;100238.63;4982767;28;20090;-68
2023/03/26 04:06:51;;;;;;;22.70;4.28;;;;;;;7.59;100.00;100228.03;4974985;28;20466;-69
2023/03/26 04:09:16;;;;;;;22.30;4.28;;;;;;;7.59;100.00;100230.72;4975406;28;20022;-71
2023/03/26 04:11:42;;;;;;;20.50;5.18;;;;;;;7.58;100.00;100226.38;4975648;28;20034;-72
2023/03/26 04:14:07;;;;;;;18.95;3.95;;;;;;;7.61;100.00;100215.16;4974931;28;20348;-71
2023/03/26 04:16:32;;;;;;;17.55;3.72;;;;;;;7.67;100.00;100207.22;4974934;28;20114;-71
2023/03/26 04:19:01;;;;;;;20.33;4.25;;;;;;;7.68;100.00;100200.81;4974630;28;20568;-71
2023/03/26 04:21:29;;;;;;;20.05;4.40;;;;;;;7.71;100.00;100197.66;4975004;28;20081;-69
2023/03/26 04:23:55;;;;;;;20.08;3.88;;;;;;;7.69;100.00;100200.59;4975078;28;20113;-70
2023/03/26 04:26:20;;;;;;;17.35;4.07;;;;;;;7.69;100.00;100194.38;4957796;28;20219;-69
2023/03/26 04:28:53;;;;;;;20.40;4.45;;;;;;;7.70;100.00;100190.63;4975270;28;20027;-72
2023/03/26 04:31:23;;;;;;;16.70;4.03;;;;;;;7.70;100.00;100180.69;4974985;28;20109;-69
2023/03/26 04:33:53;;;;;;;19.75;4.57;;;;;;;7.72;100.00;100175.09;4978663;28;20050;-70
2023/03/26 04:36:26;;;;;;;27.10;6.05;;;;;;;7.71;100.00;100165.34;4974777;28;20019;-70
2023/03/26 04:38:52;;;;;;;21.15;4.35;;;;;;;7.73;100.00;100168.63;4975036;28;20026;-69
2023/03/26 04:41:21;;;;;;;17.90;3.83;;;;;;;7.75;100.00;100166.56;4974756;28;20031;-72
2023/03/26 04:43:49;;;;;;;17.65;4.13;;;;;;;7.74;100.00;100159.50;4979286;28;20034;-69
2023/03/26 04:46:20;;;;;;;18.27;4.05;;;;;;;7.72;100.00;100162.44;4993775;28;20038;-68
2023/03/26 04:48:47;;;;;;;19.70;4.25;;;;;;;7.77;100.00;100148.28;4991806;28;20447;-71
2023/03/26 04:51:20;;;;;;;19.80;4.28;;;;;;;7.75;100.00;100142.31;4974583;28;20380;-70
2023/03/26 04:53:58;;;;;;;21.75;4.60;;;;;;;7.80;100.00;100142.47;4979164;28;20038;-70
2023/03/26 04:56:39;;;;;;;23.73;4.22;;;;;;;7.80;100.00;100137.91;4993728;28;20109;-68
2023/03/26 04:59:06;;;;;;;;;;;;;;;7.91;100.00;100130.94;4994478;28;20069;-70
2023/03/26 05:01:36;;;;;;;21.42;4.78;;;;;;;7.82;100.00;100124.22;4991507;28;20309;-71
2023/03/26 05:04:01;;;;;;;19.52;4.25;;;;;;;7.77;100.00;100118.66;4985654;28;20074;-70
2023/03/26 05:06:27;;;;;;;17.42;3.85;;;;;;;7.80;100.00;100118.22;4984799;28;20082;-67
2023/03/26 05:08:55;;;;;;;17.40;4.20;;;;;;;7.77;100.00;100113.28;4994013;28;20508;-68
2023/03/26 05:11:21;;;;;;;18.08;3.90;;;;;;;7.79;100.00;100111.22;4993803;28;20116;-71
2023/03/26 05:13:46;;;;;;;16.80;4.07;;;;;;;7.78;100.00;100112.25;4992841;28;20447;-69
2023/03/26 05:16:12;;;;;;;20.30;4.40;;;;;;;7.83;100.00;100111.56;4993726;28;20037;-70
2023/03/26 05:18:37;;;;;;;21.30;4.30;;;;;;;7.80;100.00;100099.38;4987806;28;20521;-68
2023/03/26 05:21:03;;;;;;;19.48;4.10;;;;;;;7.78;100.00;100101.47;4974140;28;20407;-68
2023/03/26 05:23:29;;;;;;;17.80;3.85;;;;;;;7.79;100.00;100101.25;4973550;28;20081;-71
2023/03/26 05:25:54;;;;;;;22.73;4.53;;;;;;;7.75;100.00;100091.16;4974307;28;20089;-68
2023/03/26 05:28:23;;;;;;;17.38;4.28;;;;;;;7.78;100.00;100093.38;4974141;28;20030;-69
2023/03/26 05:30:49;;;;;;;18.27;4.15;;;;;;;7.76;100.00;100090.09;4974210;28;20113;-70
2023/03/26 05:33:16;;;;;;;21.98;5.55;;;;;;;7.77;100.00;100084.47;4972971;28;20047;-68
2023/03/26 05:35:42;;;;;;;16.90;4.25;;;;;;;7.81;100.00;100085.66;4974137;28;20050;-70
2023/03/26 05:38:07;;;;;;;18.58;4.80;;;;;;;7.78;100.00;100074.53;4973970;28;20026;-71
2023/03/26 05:40:32;;;;;;;18.80;4.50;;;;;;;7.80;100.00;100077.81;4973835;28;20459;-70
2023/03/26 05:42:58;;;;;;;18.52;4.70;;;;;;;7.82;100.00;100081.13;4974031;28;20382;-70
2023/03/26 05:45:23;;;;;;;19.85;4.50;;;;;;;7.83;100.00;100071.97;4989548;28;20076;-69
2023/03/26 05:47:50;;;;;;;22.58;4.80;;;;;;;7.81;100.00;100071.38;4973695;28;20085;-71
2023/03/26 05:50:15;;;;;;;23.30;5.28;;;;;;;7.83;100.00;100065.78;4973877;28;20447;-72
2023/03/26 05:52:40;;;;;;;23.98;4.90;;;;;;;7.86;100.00;100065.31;4973956;28;20030;-70
2023/03/26 05:55:07;;;;;;;17.45;4.60;;;;;;;7.82;100.00;100062.28;4987735;28;20053;-71
2023/03/26 05:57:34;;;;;;;20.55;4.88;;;;;;;7.80;100.00;100057.09;4993003;28;20505;-70
2023/03/26 05:59:59;;;;;;;20.25;4.10;;;;;;;7.83;100.00;100044.22;4975750;28;20154;-68
2023/03/26 06:02:25;;;;;;;18.05;4.47;;;;;;;7.79;100.00;100027.72;4988873;28;20134;-72
2023/03/26 06:04:51;;;;;;;17.95;4.57;;;;;;;7.81;100.00;100037.19;4956116;28;20023;-72
2023/03/26 06:07:17;;;;;;;22.45;4.50;;;;;;;7.76;100.00;100044.28;4973736;28;20031;-70
2023/03/26 06:09:43;;;;;;;16.10;4.03;;;;;;;7.78;100.00;100031.44;4973772;28;20035;-69
2023/03/26 06:12:09;;;;;;;20.52;4.75;;;;;;;7.80;100.00;100029.34;4973652;28;20065;-68
2023/03/26 06:14:35;;;;;;;19.42;4.05;;;;;;;7.80;100.00;100029.34;4956584;28;20026;-68
2023/03/26 06:17:01;;;;;;;23.05;4.20;;;;;;;7.78;100.00;100026.06;4977473;28;20050;-70
2023/03/26 06:19:26;;;;;;;18.52;4.57;;;;;;;7.81;100.00;100022.91;4960114;28;20410;-71
2023/03/26 06:21:51;;;;;;;19.10;4.53;;;;;;;7.79;100.00;100027.72;4977345;28;20045;-72
2023/03/26 06:24:18;;;;;;;22.63;4.88;;;;;;;7.76;100.00;100022.75;4984625;28;20014;-69
2023/03/26 06:26:44;;;;;;;18.42;4.50;;;;;;;7.79;100.00;100022.31;4996879;28;20034;-71
2023/03/26 06:29:09;;;;;;;20.13;4.13;;;;;;;7.83;100.00;100018.09;4996914;28;20029;-71
2023/03/26 06:31:35;;;;;;;18.70;4.10;;;;;;;7.79;100.00;100019.63;4996866;28;20446;-71
2023/03/26 06:34:00;;;;;;;22.75;4.75;;;;;;;7.74;100.00;100019.47;4976280;28;20043;-71
2023/03/26 06:36:26;;;;;;;17.27;4.32;;;;;;;7.80;100.00;100026.63;4996466;28;20034;-72
2023/03/26 06:38:51;;;;;;;16.83;3.63;;;;;;;7.80;100.00;100024.78;4996784;28;20080;-68
2023/03/26 06:41:16;;;;;;;20.38;4.10;;;;;;;7.83;100.00;100020.78;4979099;28;20073;-68
2023/03/26 06:43:42;;;;;;;19.63;4.45;;;;;;;7.81;100.00;100022.91;4964552;28;20428;-71
2023/03/26 06:46:07;;;;;;;15.40;3.83;;;;;;;7.79;100.00;100023.13;4977169;28;20113;-68
2023/03/26 06:48:33;;;;;;;16.45;3.80;;;;;;;7.78;100.00;100026.06;4976071;28;20034;-68
2023/03/26 06:50:58;;;;;;;16.85;4.55;;;;;;;7.78;100.00;100026.06;4959712;28;20045;-69
2023/03/26 06:53:23;;;;;;;20.55;4.25;;;;;;;7.80;100.00;100021.25;4976790;28;20037;-70
2023/03/26 06:55:49;;;;;;;17.35;4.15;;;;;;;7.79;100.00;100027.72;4976503;28;20106;-70
2023/03/26 06:58:15;;;;;;;19.23;4.05;;;;;;;7.79;100.00;100023.13;4976875;28;20038;-72
2023/03/26 07:00:41;;;;;;;18.15;4.18;;;;;;;7.78;100.00;100020.66;4956925;28;20031;-70
2023/03/26 07:03:07;;;;;;;16.48;4.53;;;;;;;7.76;100.00;100020.06;4975916;28;20169;-71
2023/03/26 07:05:32;;;;;;;18.52;4.05;;;;;;;7.77;100.00;100019.00;4976564;28;20481;-69
2023/03/26 07:07:58;;;;;;;19.35;4.68;;;;;;;7.73;100.00;100020.50;4959368;28;20031;-71
2023/03/26 07:10:23;;;;;;;14.60;4.28;;;;;;;7.78;100.00;100009.91;4959172;28;20029;-71
2023/03/26 07:12:49;;;;;;;16.13;3.90;;;;;;;7.73;100.00;100017.81;4976119;28;20147;-70
2023/03/26 07:15:14;;;;;;;18.23;4.60;;;;;;;7.72;100.00;100018.88;4976034;28;20035;-69
2023/03/26 07:17:39;;;;;;;17.52;4.35;;;;;;;7.73;100.00;100013.28;4984436;28;20022;-70
2023/03/26 07:20:07;;;;;;;18.10;4.40;;;;;;;7.75;100.00;100007.66;4994966;28;20026;-70
2023/03/26 07:22:33;;;;;;;18.08;3.65;;;;;;;7.70;100.00;100010.19;4990234;28;20050;-69
2023/03/26 07:24:58;;;;;;;15.73;4.18;;;;;;;7.73;100.00;100007.03;4976604;28;20071;-71
2023/03/26 07:27:24;;;;;;;19.73;4.50;;;;;;;7.75;100.00;100015.75;4957977;28;20127;-70
2023/03/26 07:30:00;;;;;;;15.23;3.83;;;;;;;7.78;100.00;99999.94;4976153;28;20077;-71
2023/03/26 07:32:38;;;;;;;14.65;4.03;;;;;;;7.72;100.00;100003.53;4975510;28;20018;-69
2023/03/26 07:35:16;;;;;;;16.75;4.25;;;;;;;7.74;100.00;99992.53;4984708;28;20045;-68
2023/03/26 07:38:03;;;;;;;11.95;4.03;;;;;;;7.74;100.00;99996.03;4983067;28;20482;-70
2023/03/26 07:40:47;;;;;;;14.10;4.10;;;;;;;7.83;100.00;99990.34;4975823;28;20038;-68
2023/03/26 07:43:21;;;;;;;18.38;5.55;;;;;;;7.81;100.00;99993.28;4976298;28;20086;-70
2023/03/26 07:45:46;;;;;;;14.43;4.95;;;;;;;7.84;100.00;99992.81;4979553;28;20030;-69
2023/03/26 07:48:17;;;;;;;14.77;4.60;;;;;;;7.85;100.00;99983.69;4976071;28;20153;-71
2023/03/26 07:50:43;;;;;;;17.80;4.43;;;;;;;7.84;100.00;99987.44;4976003;28;20113;-70
2023/03/26 07:53:09;;;;;;;16.52;4.53;;;;;;;7.85;100.00;99982.88;4968412;28;20046;-70
2023/03/26 07:55:45;;;;;;;13.68;4.00;;;;;;;7.87;100.00;99976.22;4976907;28;20115;-69
2023/03/26 07:58:31;;;;;;;12.55;4.13;;;;;;;7.91;100.00;99984.63;4977830;28;20026;-70
2023/03/26 08:01:09;;;;;;;17.35;4.20;;;;;;;7.88;100.00;99980.56;4992934;28;20064;-69
2023/03/26 08:03:50;;;;;;;14.65;4.47;;;;;;;7.88;100.00;99980.56;4994474;28;20034;-70
2023/03/26 08:06:35;;;;;;;17.05;4.45;;;;;;;7.96;100.00;99977.53;4995168;28;20373;-70
2023/03/26 08:09:26;;;;;;;13.02;4.10;;;;;;;7.94;100.00;99978.78;4979514;28;20026;-69
2023/03/26 08:11:57;;;;;;;12.63;4.25;;;;;;;7.96;100.00;99976.72;4971627;28;20459;-70
2023/03/26 08:14:39;;;;;;;12.52;4.05;;;;;;;7.94;100.00;99971.56;4975577;28;20503;-68
2023/03/26 08:17:38;;;;;;;15.10;4.32;;;;;;;8.03;100.00;99972.06;4958156;28;20035;-67
2023/03/26 08:20:09;;;;;;;13.60;4.13;;;;;;;8.03;100.00;99971.22;4947054;28;20475;-68
2023/03/26 08:22:40;;;;;;;13.75;4.57;;;;;;;8.04;100.00;99973.69;4974696;28;20035;-70
2023/03/26 08:25:26;;;;;;;13.03;4.47;;;;;;;8.09;100.00;99972.97;4987487;28;20031;-71
2023/03/26 08:28:13;;;;;;;16.77;4.95;;;;;;;8.09;100.00;99963.06;4977145;28;20273;-68
2023/03/26 08:30:38;;;;;;;17.85;5.05;;;;;;;8.07;100.00;99959.75;4994479;28;20354;-69
2023/03/26 08:33:12;;;;;;;15.45;5.50;;;;;;;8.10;100.00;99964.66;4993463;28;20046;-70
2023/03/26 08:35:41;;;;;;;16.70;5.10;;;;;;;8.09;100.00;99959.50;4976985;28;20026;-70
2023/03/26 08:38:11;;;;;;;13.48;5.10;;;;;;;8.12;100.00;99967.13;4976875;28;20451;-70
2023/03/26 08:41:09;;;;;;;14.13;4.60;;;;;;;8.18;100.00;99968.91;4988271;28;20451;-70
2023/03/26 08:43:40;;;;;;;17.63;5.15;;;;;;;8.15;100.00;99970.22;4985100;28;20057;-71
2023/03/26 08:46:05;;;;;;;17.50;4.70;;;;;;;8.14;100.00;99968.56;4994389;28;20085;-69
2023/03/26 08:49:08;;;;;;;14.88;4.57;;;;;;;8.20;100.00;99958.72;4979467;28;20026;-71
2023/03/26 08:52:12;;;;;;;15.25;5.85;;;;;;;8.20;100.00;99958.72;4974710;28;20026;-75
2023/03/26 08:55:15;;;;;;;21.40;6.30;;;;;;;8.24;100.00;99959.88;4960506;28;20042;-74
2023/03/26 08:58:08;;;;;;;13.95;4.07;;;;;;;8.22;100.00;99958.50;4992380;28;20553;-73
2023/03/26 09:00:40;;;;;;;14.57;4.95;;;;;;;8.24;100.00;99964.47;5010517;28;20029;-77
2023/03/26 09:03:40;;;;;;;15.90;5.35;;;;;;;8.30;100.00;99961.69;4967895;28;20039;-73
2023/03/26 09:06:51;;;;;;;18.90;5.70;;;;;;;8.34;100.00;99953.94;4952380;28;20034;-74
2023/03/26 09:09:46;;;;;;;16.85;4.80;;;;;;;8.30;100.00;99956.28;4968006;28;20030;-73
2023/03/26 09:12:43;;;;;;;15.35;5.43;;;;;;;8.35;100.00;99952.91;4978419;28;20025;-71
2023/03/26 09:15:34;;;;;;;15.75;4.72;;;;;;;8.39;100.00;99955.94;4988938;28;20502;-72
2023/03/26 09:18:36;;;;;;;18.85;4.95;;;;;;;8.37;100.00;99958.06;4968785;28;20077;-71
2023/03/26 09:21:24;;;;;;;11.48;3.88;;;;;;;8.38;100.00;99952.44;4973818;28;20031;-73
2023/03/26 09:23:58;;;;;;;13.40;4.00;;;;;;;8.36;100.00;99959.91;4973422;28;20038;-70
2023/03/26 09:26:35;;;;;;;18.02;4.30;;;;;;;8.34;100.00;99949.38;4973547;28;20035;-71
2023/03/26 09:29:25;;;;;;;16.30;3.95;;;;;;;8.39;100.00;99953.25;4973454;28;20058;-74
2023/03/26 09:31:56;;;;;;;12.45;4.15;;;;;;;8.38;100.00;99954.28;4973276;28;20031;-74
2023/03/26 09:34:58;;;;;;;17.05;5.03;;;;;;;8.42;100.00;99955.47;4973772;28;20057;-73
2023/03/26 09:37:38;;;;;;;14.45;4.43;;;;;;;8.40;100.00;99953.00;4973574;28;20034;-70
2023/03/26 09:40:21;;;;;;;13.02;4.15;;;;;;;8.38;100.00;99954.28;4973375;28;20062;-74
2023/03/26 09:43:02;;;;;;;13.20;3.92;;;;;;;8.41;100.00;99957.38;4973492;28;20027;-73
2023/03/26 09:45:41;;;;;;;13.93;3.88;;;;;;;8.43;100.00;99952.53;4979869;28;20026;-73
2023/03/26 09:48:17;;;;;;;13.45;3.85;;;;;;;8.46;100.00;99952.13;4974875;28;20033;-72
2023/03/26 09:51:19;;;;;;;11.52;3.75;;;;;;;8.49;100.00;99950.84;4955270;28;20027;-74
2023/03/26 09:54:09;;;;;;;8.50;2.97;;;;;;;8.41;100.00;99953.81;4956046;28;20038;-73
2023/03/26 09:57:03;;;;;;;7.03;2.85;;;;;;;8.44;100.00;99956.09;4973841;28;20146;-71
2023/03/26 09:59:47;;;;;;;6.20;2.53;;;;;;;8.36;100.00;99956.41;4973976;28;20030;-70
2023/03/26 10:02:15;;;;;;;6.50;2.47;;;;;;;8.31;100.00;99966.00;4976594;28;20034;-72
2023/03/26 10:05:19;;;;;;;6.47;2.53;;;;;;;8.40;100.00;99963.81;4973019;28;20113;-73
2023/03/26 10:08:19;;;;;;;7.38;2.92;;;;;;;8.39;100.00;99964.03;4973376;28;20042;-74
2023/03/26 10:11:14;;;;;;;10.43;3.40;;;;;;;8.44;100.00;99956.09;4980633;28;20042;-71
2023/03/26 10:14:02;;;;;;;12.88;3.42;;;;;;;8.38;100.00;99965.06;4958470;28;20118;-72
2023/03/26 10:16:37;;;;;;;8.63;2.65;;;;;;;8.37;100.00;99969.66;4973154;28;20031;-70
2023/03/26 10:19:18;;;;;;;7.22;2.75;;;;;;;8.30;100.00;99960.84;4958080;28;20121;-73
2023/03/26 10:22:03;;;;;;;7.57;3.05;;;;;;;8.34;100.00;99968.25;4990595;28;20026;-71
2023/03/26 10:25:00;;;;;;;6.90;2.60;;;;;;;8.32;100.00;99967.66;4975015;28;20030;-73
2023/03/26 10:27:50;;;;;;;7.60;2.42;;;;;;;8.32;100.00;99966.84;4987152;28;20043;-75
2023/03/26 10:30:28;;;;;;;6.65;2.20;;;;;;;8.31;100.00;99971.41;4976171;28;20042;-72
2023/03/26 10:33:14;;;;;;;6.22;1.90;;;;;;;8.23;100.00;99969.06;4972762;28;20467;-75
2023/03/26 10:36:00;;;;;;;5.90;2.17;;;;;;;8.21;100.00;99975.72;4955833;28;20038;-72
2023/03/26 10:38:56;;;;;;;8.57;2.55;;;;;;;8.19;100.00;99977.81;4955089;28;20077;-72
2023/03/26 10:41:40;;;;;;;5.70;2.17;;;;;;;8.21;100.00;99971.13;4991017;28;20441;-73
2023/03/26 10:44:42;;;;;;;4.55;1.98;;;;;;;8.24;100.00;99976.06;4988191;28;20034;-75
2023/03/26 10:47:07;;;;;;;;;;;;;;;8.40;100.00;99979.97;4989370;28;20034;-73
2023/03/26 10:49:57;;;;;;;7.17;2.20;;;;;;;8.34;100.00;99978.22;4973536;28;19917;-76
2023/03/26 10:52:37;;;;;;;8.40;2.30;;;;;;;8.33;100.00;99977.41;4973181;28;20262;-74
2023/03/26 10:55:15;;;;;;;7.25;2.20;;;;;;;8.32;100.00;99978.44;4973399;28;20023;-73
2023/03/26 10:57:48;;;;;;;4.78;1.95;;;;;;;8.37;100.00;99979.63;4972149;28;20032;-75
2023/03/26 11:00:24;;;;;;;6.88;1.98;;;;;;;8.31;100.00;99984.06;4956053;28;20069;-73
2023/03/26 11:03:17;;;;;;;6.55;1.90;;;;;;;8.42;100.00;99982.44;4958556;28;20050;-76
2023/03/26 11:05:48;;;;;;;3.47;1.80;;;;;;;8.40;100.00;99985.38;4978597;28;20034;-75
2023/03/26 11:08:34;;;;;;;5.70;1.90;;;;;;;8.45;100.00;99976.63;4978801;28;20026;-77
2023/03/26 11:11:17;;;;;;;3.05;1.50;;;;;;;8.43;100.00;99994.88;4978462;28;20023;-74
2023/03/26 11:13:55;;;;;;;3.58;1.70;;;;;;;8.39;100.00;99989.09;4986068;28;20458;-71
2023/03/26 11:16:27;;;;;;;3.42;1.83;;;;;;;8.32;100.00;99993.81;4995673;28;20473;-74
2023/03/26 11:19:01;;;;;;;2.65;1.45;;;;;;;8.27;100.00;99986.41;4977509;28;20433;-75
2023/03/26 11:21:42;;;;;;;4.55;1.98;;;;;;;8.27;100.00;99991.81;4980043;28;20072;-76
2023/03/26 11:24:23;;;;;;;4.18;2.05;;;;;;;8.28;100.00;99992.63;4982097;28;20035;-74
2023/03/26 11:27:06;;;;;;;4.10;1.63;;;;;;;8.36;100.00;99996.84;4971138;28;20126;-76
2023/03/26 11:30:03;;;;;;;2.38;1.10;;;;;;;8.46;100.00;99999.84;4978312;28;20081;-78
2023/03/26 11:32:43;;;;;;;3.08;1.23;;;;;;;8.47;100.00;100004.16;4978376;28;20022;-74
2023/03/26 11:35:25;;;;;;;5.22;1.50;;;;;;;8.52;100.00;99999.72;4995849;28;20030;-78
2023/03/26 11:37:52;;;;;;;;;;;;;;;8.71;100.00;100005.03;4960388;28;20442;-78
2023/03/26 11:40:31;;;;;;;3.40;1.40;;;;;;;8.58;100.00;100000.66;4995726;28;19914;-78
2023/03/26 11:43:05;;;;;;;4.38;1.80;;;;;;;8.55;100.00;100005.72;4964810;28;20022;-78
2023/03/26 11:45:36;;;;;;;5.55;2.00;;;;;;;8.56;100.00;100008.19;4990518;28;20466;-77
2023/03/26 11:48:25;;;;;;;3.72;1.95;;;;;;;8.67;100.00;100011.94;4958480;28;20031;-75